ASA661 MMPR-KSEA
Flight info
| Callsign | ASA661 |
|---|---|
| Flight time | 4h 29m |
| Altitude | 36000 |
| Route | BOBDI1A BOBDI UT4 LMM UJ3 HMO J92 TUS DCT BAYTA DCT DNLAP DCT WINEN DCT ROOHZ DCT PDT CHINS5 |
| Aircraft | B38M/M-SDE1FGHILORVWXY/HB1 |
Departure
| Time | 2026-05-07 15:13 |
|---|---|
| Airport | Puerto Vallarta International Airport (MMPR) |
Arrival
| Time | 2026-05-07 19:42 |
|---|---|
| Airport | Seattle–Tacoma International Airport (KSEA) |
| Time | Latitude | Longitude | Altitude | Speed | Heading |
|---|---|---|---|---|---|
| 2026-05-07 14:40 | 20.68050 | -105.24650 | 31 ft | 0 kts | 227° |
| 2026-05-07 15:01 | 20.68063 | -105.24635 | 31 ft | 4 kts | 225° |
| 2026-05-07 15:01 | 20.68081 | -105.24614 | 31 ft | 4 kts | 229° |
| 2026-05-07 15:01 | 20.68089 | -105.24601 | 31 ft | 2 kts | 272° |
| 2026-05-07 15:02 | 20.68083 | -105.24587 | 28 ft | 3 kts | 311° |
| 2026-05-07 15:02 | 20.68084 | -105.24586 | 28 ft | 4 kts | 317° |
| 2026-05-07 15:02 | 20.68102 | -105.24605 | 24 ft | 3 kts | 316° |
| 2026-05-07 15:02 | 20.68112 | -105.24614 | 27 ft | 2 kts | 317° |
| 2026-05-07 15:03 | 20.68119 | -105.24622 | 31 ft | 2 kts | 317° |
| 2026-05-07 15:03 | 20.68120 | -105.24623 | 31 ft | 0 kts | 317° |
| 2026-05-07 15:06 | 20.68123 | -105.24626 | 31 ft | 2 kts | 317° |
| 2026-05-07 15:07 | 20.68144 | -105.24646 | 31 ft | 7 kts | 317° |
| 2026-05-07 15:07 | 20.68183 | -105.24685 | 31 ft | 9 kts | 317° |
| 2026-05-07 15:07 | 20.68232 | -105.24732 | 31 ft | 10 kts | 318° |
| 2026-05-07 15:07 | 20.68289 | -105.24789 | 31 ft | 12 kts | 310° |
| 2026-05-07 15:08 | 20.68265 | -105.24862 | 31 ft | 12 kts | 229° |
| 2026-05-07 15:08 | 20.68205 | -105.24933 | 31 ft | 14 kts | 227° |
| 2026-05-07 15:08 | 20.68137 | -105.25012 | 31 ft | 15 kts | 227° |
| 2026-05-07 15:08 | 20.68062 | -105.25098 | 31 ft | 16 kts | 227° |
| 2026-05-07 15:09 | 20.67981 | -105.25191 | 32 ft | 18 kts | 227° |
| 2026-05-07 15:09 | 20.67894 | -105.25291 | 32 ft | 19 kts | 227° |
| 2026-05-07 15:09 | 20.67801 | -105.25398 | 32 ft | 20 kts | 227° |
| 2026-05-07 15:09 | 20.67701 | -105.25512 | 31 ft | 22 kts | 227° |
| 2026-05-07 15:10 | 20.67595 | -105.25632 | 31 ft | 23 kts | 227° |
| 2026-05-07 15:10 | 20.67485 | -105.25760 | 31 ft | 24 kts | 227° |
| 2026-05-07 15:10 | 20.67368 | -105.25894 | 31 ft | 25 kts | 227° |
| 2026-05-07 15:10 | 20.67248 | -105.26034 | 31 ft | 26 kts | 227° |
| 2026-05-07 15:11 | 20.67122 | -105.26177 | 32 ft | 27 kts | 226° |
| 2026-05-07 15:11 | 20.67010 | -105.26305 | 32 ft | 22 kts | 227° |
| 2026-05-07 15:11 | 20.66966 | -105.26387 | 32 ft | 11 kts | 278° |
| 2026-05-07 15:11 | 20.67013 | -105.26456 | 33 ft | 12 kts | 316° |
| 2026-05-07 15:12 | 20.67057 | -105.26497 | 34 ft | 4 kts | 338° |
| 2026-05-07 15:12 | 20.67079 | -105.26484 | 34 ft | 4 kts | 46° |
| 2026-05-07 15:12 | 20.67108 | -105.26452 | 34 ft | 9 kts | 47° |
| 2026-05-07 15:12 | 20.67266 | -105.26270 | 34 ft | 67 kts | 47° |
| 2026-05-07 15:13 | 20.67733 | -105.25733 | 32 ft | 128 kts | 47° |
| 2026-05-07 15:13 | 20.68451 | -105.24908 | 97 ft | 168 kts | 48° |
| 2026-05-07 15:13 | 20.69248 | -105.23951 | 583 ft | 179 kts | 49° |
| 2026-05-07 15:13 | 20.70082 | -105.22914 | 1129 ft | 187 kts | 49° |
| 2026-05-07 15:14 | 20.70933 | -105.21872 | 1794 ft | 186 kts | 48° |
| 2026-05-07 15:14 | 20.71788 | -105.20867 | 2426 ft | 185 kts | 47° |
| 2026-05-07 15:14 | 20.72666 | -105.19853 | 3058 ft | 187 kts | 46° |
| 2026-05-07 15:14 | 20.73578 | -105.18809 | 3492 ft | 201 kts | 46° |
| 2026-05-07 15:15 | 20.74594 | -105.17657 | 3718 ft | 226 kts | 46° |
| 2026-05-07 15:15 | 20.75723 | -105.16381 | 4095 ft | 240 kts | 46° |
| 2026-05-07 15:15 | 20.76870 | -105.15090 | 4810 ft | 241 kts | 46° |
| 2026-05-07 15:15 | 20.78034 | -105.13784 | 5476 ft | 244 kts | 46° |
| 2026-05-07 15:16 | 20.79211 | -105.12462 | 6153 ft | 247 kts | 46° |
| 2026-05-07 15:16 | 20.80397 | -105.11131 | 6804 ft | 249 kts | 46° |
| 2026-05-07 15:16 | 20.81192 | -105.10239 | 7183 ft | 252 kts | 46° |
| 2026-05-07 15:16 | 20.82614 | -105.09067 | 7523 ft | 268 kts | 22° |
| 2026-05-07 15:17 | 20.84476 | -105.08670 | 7834 ft | 283 kts | 0° |
| 2026-05-07 15:17 | 20.86494 | -105.08625 | 8207 ft | 295 kts | 1° |
| 2026-05-07 15:17 | 20.88550 | -105.08567 | 8869 ft | 297 kts | 0° |
| 2026-05-07 15:17 | 20.90638 | -105.08512 | 9471 ft | 302 kts | 0° |
| 2026-05-07 15:18 | 20.92753 | -105.08459 | 10055 ft | 307 kts | 0° |
| 2026-05-07 15:18 | 20.94924 | -105.08406 | 10410 ft | 321 kts | 0° |
| 2026-05-07 15:18 | 20.97230 | -105.08350 | 10582 ft | 341 kts | 0° |
| 2026-05-07 15:18 | 20.99665 | -105.08292 | 10750 ft | 358 kts | 0° |
| 2026-05-07 15:19 | 21.02205 | -105.08231 | 11039 ft | 370 kts | 1° |
| 2026-05-07 15:19 | 21.04780 | -105.08169 | 11635 ft | 371 kts | 1° |
| 2026-05-07 15:19 | 21.07380 | -105.08107 | 12166 ft | 376 kts | 1° |
| 2026-05-07 15:19 | 21.10004 | -105.08045 | 12766 ft | 379 kts | 1° |
| 2026-05-07 15:20 | 21.13564 | -105.08007 | 13539 ft | 385 kts | 354° |
| 2026-05-07 15:20 | 21.15312 | -105.08345 | 13897 ft | 387 kts | 341° |
| 2026-05-07 15:20 | 21.17726 | -105.09590 | 14475 ft | 386 kts | 322° |
| 2026-05-07 15:20 | 21.19654 | -105.11564 | 14996 ft | 386 kts | 304° |
| 2026-05-07 15:21 | 21.20925 | -105.14077 | 15560 ft | 383 kts | 287° |
| 2026-05-07 15:21 | 21.21772 | -105.16792 | 16088 ft | 386 kts | 285° |
| 2026-05-07 15:21 | 21.22591 | -105.19546 | 16643 ft | 388 kts | 284° |
| 2026-05-07 15:21 | 21.23391 | -105.22313 | 17187 ft | 391 kts | 284° |
| 2026-05-07 15:22 | 21.24185 | -105.25111 | 17716 ft | 393 kts | 284° |
| 2026-05-07 15:22 | 21.24975 | -105.27926 | 18237 ft | 396 kts | 283° |
| 2026-05-07 15:22 | 21.25767 | -105.30760 | 18690 ft | 398 kts | 283° |
| 2026-05-07 15:22 | 21.26561 | -105.33607 | 19150 ft | 400 kts | 283° |
| 2026-05-07 15:23 | 21.27358 | -105.36471 | 19582 ft | 402 kts | 283° |
| 2026-05-07 15:23 | 21.28155 | -105.39338 | 20020 ft | 404 kts | 283° |
| 2026-05-07 15:23 | 21.28960 | -105.42232 | 20451 ft | 406 kts | 283° |
| 2026-05-07 15:23 | 21.29768 | -105.45141 | 20876 ft | 408 kts | 283° |
| 2026-05-07 15:24 | 21.30567 | -105.48021 | 21287 ft | 410 kts | 283° |
| 2026-05-07 15:24 | 21.31383 | -105.50959 | 21705 ft | 412 kts | 283° |
| 2026-05-07 15:24 | 21.32202 | -105.53911 | 22115 ft | 414 kts | 283° |
| 2026-05-07 15:24 | 21.33028 | -105.56891 | 22522 ft | 417 kts | 283° |
| 2026-05-07 15:25 | 21.33865 | -105.59910 | 22927 ft | 419 kts | 283° |
| 2026-05-07 15:25 | 21.34683 | -105.62865 | 23311 ft | 421 kts | 283° |
| 2026-05-07 15:25 | 21.35519 | -105.65888 | 23664 ft | 423 kts | 283° |
| 2026-05-07 15:25 | 21.36356 | -105.68916 | 23997 ft | 424 kts | 283° |
| 2026-05-07 15:26 | 21.37295 | -105.71928 | 24287 ft | 430 kts | 291° |
| 2026-05-07 15:26 | 21.38902 | -105.74657 | 24694 ft | 438 kts | 306° |
| 2026-05-07 15:26 | 21.41198 | -105.76914 | 25044 ft | 447 kts | 320° |
| 2026-05-07 15:26 | 21.43692 | -105.78846 | 25341 ft | 449 kts | 320° |
| 2026-05-07 15:27 | 21.46244 | -105.80796 | 25644 ft | 452 kts | 320° |
| 2026-05-07 15:27 | 21.48826 | -105.82744 | 25958 ft | 454 kts | 320° |
| 2026-05-07 15:27 | 21.51417 | -105.84680 | 26258 ft | 456 kts | 321° |
| 2026-05-07 15:27 | 21.54025 | -105.86623 | 26559 ft | 458 kts | 321° |
| 2026-05-07 15:28 | 21.56650 | -105.88579 | 26857 ft | 460 kts | 321° |
| 2026-05-07 15:28 | 21.59286 | -105.90544 | 27155 ft | 462 kts | 321° |
| 2026-05-07 15:28 | 21.61927 | -105.92513 | 27442 ft | 464 kts | 321° |
| 2026-05-07 15:28 | 21.64583 | -105.94494 | 27725 ft | 466 kts | 321° |
| 2026-05-07 15:29 | 21.67254 | -105.96486 | 28015 ft | 468 kts | 321° |
| 2026-05-07 15:29 | 21.69933 | -105.98486 | 28278 ft | 470 kts | 320° |
| 2026-05-07 15:29 | 21.72619 | -106.00493 | 28545 ft | 472 kts | 320° |
| 2026-05-07 15:29 | 21.75321 | -106.02511 | 28813 ft | 474 kts | 320° |
| 2026-05-07 15:30 | 21.78034 | -106.04540 | 29071 ft | 476 kts | 320° |
| 2026-05-07 15:30 | 21.80761 | -106.06579 | 29336 ft | 478 kts | 320° |
| 2026-05-07 15:30 | 21.83498 | -106.08627 | 29585 ft | 480 kts | 320° |
| 2026-05-07 15:30 | 21.86243 | -106.10682 | 29830 ft | 482 kts | 320° |
| 2026-05-07 15:31 | 21.88999 | -106.12747 | 30063 ft | 484 kts | 320° |
| 2026-05-07 15:31 | 21.91758 | -106.14813 | 30274 ft | 485 kts | 320° |
| 2026-05-07 15:31 | 21.94529 | -106.16891 | 30513 ft | 485 kts | 320° |
| 2026-05-07 15:31 | 21.97292 | -106.18963 | 30811 ft | 485 kts | 319° |
| 2026-05-07 15:32 | 22.00063 | -106.21043 | 31110 ft | 484 kts | 319° |
| 2026-05-07 15:32 | 22.02821 | -106.23113 | 31436 ft | 482 kts | 319° |
| 2026-05-07 15:32 | 22.05574 | -106.25181 | 31769 ft | 481 kts | 319° |
| 2026-05-07 15:32 | 22.08307 | -106.27235 | 32101 ft | 479 kts | 319° |
| 2026-05-07 15:33 | 22.11036 | -106.29287 | 32438 ft | 477 kts | 318° |
| 2026-05-07 15:33 | 22.13753 | -106.31330 | 32771 ft | 475 kts | 318° |
| 2026-05-07 15:33 | 22.16453 | -106.33362 | 33107 ft | 474 kts | 318° |
| 2026-05-07 15:33 | 22.19149 | -106.35392 | 33456 ft | 472 kts | 318° |
| 2026-05-07 15:34 | 22.21832 | -106.37414 | 33791 ft | 469 kts | 317° |
| 2026-05-07 15:34 | 22.24502 | -106.39427 | 34118 ft | 467 kts | 317° |
| 2026-05-07 15:34 | 22.27165 | -106.41434 | 34413 ft | 466 kts | 317° |
| 2026-05-07 15:34 | 22.29815 | -106.43434 | 34651 ft | 465 kts | 317° |
| 2026-05-07 15:35 | 22.32461 | -106.45431 | 34880 ft | 465 kts | 317° |
| 2026-05-07 15:35 | 22.35114 | -106.47434 | 35110 ft | 465 kts | 317° |
| 2026-05-07 15:35 | 22.37762 | -106.49434 | 35364 ft | 464 kts | 317° |
| 2026-05-07 15:35 | 22.40405 | -106.51432 | 35586 ft | 464 kts | 317° |
| 2026-05-07 15:36 | 22.43043 | -106.53427 | 35802 ft | 463 kts | 317° |
| 2026-05-07 15:36 | 22.45687 | -106.55428 | 35956 ft | 464 kts | 317° |
| 2026-05-07 15:36 | 22.50969 | -106.59427 | 35953 ft | 461 kts | 317° |
| 2026-05-07 15:37 | 22.56222 | -106.63408 | 35970 ft | 462 kts | 316° |
| 2026-05-07 15:37 | 22.61482 | -106.67398 | 35950 ft | 462 kts | 316° |
| 2026-05-07 15:38 | 22.66736 | -106.71387 | 35958 ft | 462 kts | 316° |
| 2026-05-07 15:38 | 22.71998 | -106.75386 | 35950 ft | 462 kts | 316° |
| 2026-05-07 15:39 | 22.77245 | -106.79378 | 35949 ft | 462 kts | 316° |
| 2026-05-07 15:39 | 22.82505 | -106.83383 | 35950 ft | 462 kts | 316° |
| 2026-05-07 15:40 | 22.87760 | -106.87389 | 35954 ft | 462 kts | 316° |
| 2026-05-07 15:40 | 22.93012 | -106.91395 | 35953 ft | 462 kts | 316° |
| 2026-05-07 15:41 | 22.98262 | -106.95404 | 35950 ft | 462 kts | 316° |
| 2026-05-07 15:41 | 23.03509 | -106.99416 | 35949 ft | 462 kts | 316° |
| 2026-05-07 15:42 | 23.08730 | -107.03412 | 35950 ft | 462 kts | 316° |
| 2026-05-07 15:42 | 23.14008 | -107.07451 | 35978 ft | 461 kts | 315° |
| 2026-05-07 15:43 | 23.19204 | -107.11435 | 35955 ft | 460 kts | 315° |
| 2026-05-07 15:43 | 23.24446 | -107.15457 | 35955 ft | 461 kts | 315° |
| 2026-05-07 15:44 | 23.29676 | -107.19474 | 35955 ft | 461 kts | 315° |
| 2026-05-07 15:44 | 23.34908 | -107.23497 | 35955 ft | 461 kts | 315° |
| 2026-05-07 15:45 | 23.40138 | -107.27521 | 35955 ft | 461 kts | 315° |
| 2026-05-07 15:45 | 23.45370 | -107.31550 | 35955 ft | 460 kts | 315° |
| 2026-05-07 15:46 | 23.53199 | -107.37588 | 35957 ft | 460 kts | 315° |
| 2026-05-07 15:47 | 23.58411 | -107.41613 | 35967 ft | 460 kts | 314° |
| 2026-05-07 15:47 | 23.63626 | -107.45644 | 35957 ft | 459 kts | 314° |
| 2026-05-07 15:48 | 23.68845 | -107.49681 | 35962 ft | 460 kts | 314° |
| 2026-05-07 15:48 | 23.74054 | -107.53716 | 35962 ft | 459 kts | 314° |
| 2026-05-07 15:49 | 23.79260 | -107.57752 | 35959 ft | 459 kts | 314° |
| 2026-05-07 15:49 | 23.84475 | -107.61799 | 35958 ft | 459 kts | 314° |
| 2026-05-07 15:50 | 23.89680 | -107.65842 | 35958 ft | 459 kts | 314° |
| 2026-05-07 15:50 | 23.94892 | -107.69895 | 35960 ft | 459 kts | 314° |
| 2026-05-07 15:51 | 24.00091 | -107.73942 | 35963 ft | 460 kts | 314° |
| 2026-05-07 15:51 | 24.05296 | -107.77997 | 35963 ft | 459 kts | 314° |
| 2026-05-07 15:52 | 24.10498 | -107.82055 | 35963 ft | 459 kts | 314° |
| 2026-05-07 15:52 | 24.15709 | -107.86124 | 35953 ft | 459 kts | 314° |
| 2026-05-07 15:53 | 24.20899 | -107.90180 | 35968 ft | 459 kts | 314° |
| 2026-05-07 15:53 | 24.26098 | -107.94247 | 35992 ft | 459 kts | 314° |
| 2026-05-07 15:54 | 24.31268 | -107.98296 | 35964 ft | 459 kts | 314° |
| 2026-05-07 15:54 | 24.36463 | -108.02369 | 35961 ft | 459 kts | 314° |
| 2026-05-07 15:55 | 24.41661 | -108.06448 | 35967 ft | 459 kts | 314° |
| 2026-05-07 15:55 | 24.46855 | -108.10528 | 35965 ft | 460 kts | 314° |
| 2026-05-07 15:56 | 24.52058 | -108.14619 | 35995 ft | 459 kts | 313° |
| 2026-05-07 15:56 | 24.57253 | -108.18709 | 35970 ft | 460 kts | 313° |
| 2026-05-07 15:57 | 24.62457 | -108.22810 | 35963 ft | 460 kts | 313° |
| 2026-05-07 15:57 | 24.67664 | -108.26917 | 35969 ft | 460 kts | 313° |
| 2026-05-07 15:58 | 24.72866 | -108.31026 | 35971 ft | 460 kts | 313° |
| 2026-05-07 15:58 | 24.78062 | -108.35133 | 35972 ft | 460 kts | 313° |
| 2026-05-07 15:59 | 24.83263 | -108.39249 | 35976 ft | 462 kts | 313° |
| 2026-05-07 15:59 | 24.88477 | -108.43379 | 35996 ft | 462 kts | 313° |
| 2026-05-07 16:00 | 24.93703 | -108.47524 | 35985 ft | 465 kts | 313° |
| 2026-05-07 16:00 | 24.98934 | -108.51677 | 35974 ft | 464 kts | 313° |
| 2026-05-07 16:01 | 25.04178 | -108.55844 | 35975 ft | 464 kts | 313° |
| 2026-05-07 16:01 | 25.09421 | -108.60015 | 35983 ft | 465 kts | 313° |
| 2026-05-07 16:02 | 25.14660 | -108.64187 | 35975 ft | 465 kts | 313° |
| 2026-05-07 16:02 | 25.19049 | -108.67685 | 35978 ft | 465 kts | 313° |
| 2026-05-07 16:03 | 25.24256 | -108.71839 | 35975 ft | 465 kts | 313° |
| 2026-05-07 16:03 | 25.29493 | -108.76026 | 35978 ft | 465 kts | 313° |
| 2026-05-07 16:04 | 25.34739 | -108.80226 | 36009 ft | 465 kts | 313° |
| 2026-05-07 16:04 | 25.39961 | -108.84409 | 35982 ft | 464 kts | 313° |
| 2026-05-07 16:05 | 25.45196 | -108.88606 | 35990 ft | 465 kts | 313° |
| 2026-05-07 16:05 | 25.50415 | -108.92817 | 35980 ft | 461 kts | 311° |
| 2026-05-07 16:06 | 25.55640 | -108.97007 | 35997 ft | 465 kts | 313° |
| 2026-05-07 16:06 | 25.60867 | -109.01202 | 36034 ft | 465 kts | 313° |
| 2026-05-07 16:07 | 25.66096 | -109.05412 | 36009 ft | 465 kts | 313° |
| 2026-05-07 16:07 | 25.68867 | -109.07337 | 35982 ft | 481 kts | 325° |
| 2026-05-07 16:07 | 25.72005 | -109.08739 | 36035 ft | 486 kts | 327° |
| 2026-05-07 16:08 | 25.78288 | -109.11568 | 36003 ft | 488 kts | 327° |
| 2026-05-07 16:08 | 25.84597 | -109.14359 | 36001 ft | 488 kts | 327° |
| 2026-05-07 16:09 | 25.90907 | -109.17146 | 36006 ft | 489 kts | 327° |
| 2026-05-07 16:09 | 25.97234 | -109.19944 | 36005 ft | 489 kts | 327° |
| 2026-05-07 16:10 | 26.03547 | -109.22739 | 35992 ft | 489 kts | 327° |
| 2026-05-07 16:10 | 26.09866 | -109.25540 | 36005 ft | 489 kts | 327° |
| 2026-05-07 16:11 | 26.16188 | -109.28346 | 36022 ft | 489 kts | 327° |
| 2026-05-07 16:11 | 26.22519 | -109.31159 | 35998 ft | 490 kts | 327° |
| 2026-05-07 16:12 | 26.28843 | -109.33972 | 35996 ft | 490 kts | 327° |
| 2026-05-07 16:12 | 26.35172 | -109.36790 | 35995 ft | 490 kts | 327° |
| 2026-05-07 16:13 | 26.41499 | -109.39612 | 35994 ft | 490 kts | 327° |
| 2026-05-07 16:13 | 26.47790 | -109.42421 | 35994 ft | 490 kts | 327° |
| 2026-05-07 16:14 | 26.54109 | -109.45245 | 35996 ft | 490 kts | 327° |
| 2026-05-07 16:14 | 26.60435 | -109.48076 | 35997 ft | 489 kts | 327° |
| 2026-05-07 16:15 | 26.66737 | -109.50899 | 35997 ft | 489 kts | 327° |
| 2026-05-07 16:15 | 26.73041 | -109.53727 | 36001 ft | 488 kts | 327° |
| 2026-05-07 16:16 | 26.79348 | -109.56560 | 36010 ft | 488 kts | 327° |
| 2026-05-07 16:16 | 26.85649 | -109.59393 | 36000 ft | 488 kts | 327° |
| 2026-05-07 16:17 | 26.91950 | -109.62230 | 35999 ft | 488 kts | 327° |
| 2026-05-07 16:17 | 26.98243 | -109.65066 | 36010 ft | 488 kts | 327° |
| 2026-05-07 16:18 | 27.04542 | -109.67909 | 35997 ft | 488 kts | 326° |
| 2026-05-07 16:18 | 27.10841 | -109.70754 | 36000 ft | 488 kts | 326° |
| 2026-05-07 16:19 | 27.17143 | -109.73603 | 36000 ft | 488 kts | 326° |
| 2026-05-07 16:19 | 27.23431 | -109.76450 | 36046 ft | 488 kts | 326° |
| 2026-05-07 16:20 | 27.29726 | -109.79303 | 36005 ft | 488 kts | 326° |
| 2026-05-07 16:20 | 27.36022 | -109.82159 | 36008 ft | 488 kts | 326° |
| 2026-05-07 16:21 | 27.41975 | -109.85490 | 36025 ft | 467 kts | 315° |
| 2026-05-07 16:21 | 27.47485 | -109.89348 | 35993 ft | 470 kts | 316° |
| 2026-05-07 16:22 | 27.53036 | -109.93244 | 35999 ft | 470 kts | 316° |
| 2026-05-07 16:22 | 27.58620 | -109.97170 | 35994 ft | 470 kts | 316° |
| 2026-05-07 16:23 | 27.64162 | -110.01071 | 35994 ft | 470 kts | 316° |
| 2026-05-07 16:23 | 27.69668 | -110.04952 | 35995 ft | 470 kts | 316° |
| 2026-05-07 16:24 | 27.75210 | -110.08863 | 36029 ft | 470 kts | 316° |
| 2026-05-07 16:24 | 27.80754 | -110.12780 | 35986 ft | 469 kts | 315° |
| 2026-05-07 16:25 | 27.86278 | -110.16693 | 35991 ft | 469 kts | 316° |
| 2026-05-07 16:25 | 27.91798 | -110.20606 | 35993 ft | 469 kts | 316° |
| 2026-05-07 16:26 | 27.97321 | -110.24526 | 35988 ft | 469 kts | 316° |
| 2026-05-07 16:26 | 28.02849 | -110.28451 | 36001 ft | 469 kts | 316° |
| 2026-05-07 16:27 | 28.08361 | -110.32353 | 35988 ft | 468 kts | 316° |
| 2026-05-07 16:27 | 28.13871 | -110.36297 | 36033 ft | 469 kts | 316° |
| 2026-05-07 16:28 | 28.19431 | -110.40164 | 36014 ft | 461 kts | 313° |
| 2026-05-07 16:28 | 28.24892 | -110.44154 | 36021 ft | 468 kts | 316° |
| 2026-05-07 16:29 | 28.30401 | -110.48092 | 35981 ft | 468 kts | 316° |
| 2026-05-07 16:29 | 28.35905 | -110.52030 | 35988 ft | 468 kts | 316° |
| 2026-05-07 16:30 | 28.41414 | -110.55976 | 35983 ft | 468 kts | 316° |
| 2026-05-07 16:30 | 28.46919 | -110.59925 | 35989 ft | 468 kts | 316° |
| 2026-05-07 16:31 | 28.52410 | -110.63866 | 36010 ft | 468 kts | 316° |
| 2026-05-07 16:31 | 28.57911 | -110.67824 | 35986 ft | 468 kts | 316° |
| 2026-05-07 16:32 | 28.63380 | -110.71762 | 35986 ft | 468 kts | 316° |
| 2026-05-07 16:32 | 28.68881 | -110.75726 | 35983 ft | 468 kts | 316° |
| 2026-05-07 16:33 | 28.74369 | -110.79689 | 36029 ft | 468 kts | 316° |
| 2026-05-07 16:33 | 28.79857 | -110.83655 | 35986 ft | 466 kts | 317° |
| 2026-05-07 16:34 | 28.85341 | -110.87624 | 35993 ft | 466 kts | 317° |
| 2026-05-07 16:34 | 28.90810 | -110.91587 | 35997 ft | 466 kts | 317° |
| 2026-05-07 16:35 | 28.96286 | -110.95559 | 36009 ft | 467 kts | 317° |
| 2026-05-07 16:35 | 29.01761 | -110.99536 | 36014 ft | 466 kts | 317° |
| 2026-05-07 16:36 | 29.07307 | -111.03425 | 36004 ft | 475 kts | 325° |
| 2026-05-07 16:36 | 29.10489 | -111.04658 | 36015 ft | 494 kts | 341° |
| 2026-05-07 16:36 | 29.13955 | -111.04972 | 36021 ft | 510 kts | 354° |
| 2026-05-07 16:37 | 29.21088 | -111.04677 | 36008 ft | 513 kts | 354° |
| 2026-05-07 16:37 | 29.28224 | -111.04371 | 36037 ft | 511 kts | 356° |
| 2026-05-07 16:38 | 29.35308 | -111.04057 | 35988 ft | 509 kts | 356° |
| 2026-05-07 16:38 | 29.42379 | -111.03741 | 35971 ft | 510 kts | 356° |
| 2026-05-07 16:39 | 29.49466 | -111.03424 | 35965 ft | 510 kts | 356° |
| 2026-05-07 16:39 | 29.56559 | -111.03106 | 35968 ft | 509 kts | 356° |
| 2026-05-07 16:40 | 29.63625 | -111.02789 | 35958 ft | 509 kts | 356° |
| 2026-05-07 16:40 | 29.70714 | -111.02471 | 35961 ft | 510 kts | 356° |
| 2026-05-07 16:41 | 29.77791 | -111.02153 | 35959 ft | 509 kts | 356° |
| 2026-05-07 16:41 | 29.84879 | -111.01834 | 35960 ft | 508 kts | 357° |
| 2026-05-07 16:42 | 29.91933 | -111.01516 | 35962 ft | 508 kts | 357° |
| 2026-05-07 16:42 | 29.98999 | -111.01197 | 35966 ft | 508 kts | 357° |
| 2026-05-07 16:43 | 30.06026 | -111.00879 | 35950 ft | 508 kts | 357° |
| 2026-05-07 16:43 | 30.13076 | -111.00561 | 35948 ft | 507 kts | 358° |
| 2026-05-07 16:44 | 30.20168 | -111.00242 | 35948 ft | 507 kts | 358° |
| 2026-05-07 16:44 | 30.27216 | -110.99925 | 35946 ft | 507 kts | 358° |
| 2026-05-07 16:45 | 30.34265 | -110.99606 | 35966 ft | 507 kts | 358° |
| 2026-05-07 16:45 | 30.41235 | -110.99291 | 35946 ft | 504 kts | 359° |
| 2026-05-07 16:46 | 30.48257 | -110.98973 | 35950 ft | 505 kts | 359° |
| 2026-05-07 16:46 | 30.55273 | -110.98635 | 35950 ft | 505 kts | 359° |
| 2026-05-07 16:47 | 30.62286 | -110.98293 | 35960 ft | 504 kts | 359° |
| 2026-05-07 16:47 | 30.69267 | -110.97953 | 35944 ft | 502 kts | 359° |
| 2026-05-07 16:48 | 30.76253 | -110.97613 | 35949 ft | 502 kts | 359° |
| 2026-05-07 16:48 | 30.83230 | -110.97285 | 35948 ft | 502 kts | 359° |
| 2026-05-07 16:49 | 30.89030 | -110.97021 | 35957 ft | 501 kts | 0° |
| 2026-05-07 16:49 | 30.95959 | -110.96705 | 35949 ft | 498 kts | 0° |
| 2026-05-07 16:50 | 31.02882 | -110.96388 | 35951 ft | 498 kts | 0° |
| 2026-05-07 16:50 | 31.09808 | -110.96071 | 35964 ft | 498 kts | 0° |
| 2026-05-07 16:51 | 31.16711 | -110.95754 | 36006 ft | 495 kts | 1° |
| 2026-05-07 16:51 | 31.23567 | -110.95439 | 36035 ft | 493 kts | 1° |
| 2026-05-07 16:52 | 31.30428 | -110.95123 | 36073 ft | 493 kts | 1° |
| 2026-05-07 16:52 | 31.37274 | -110.94810 | 36096 ft | 493 kts | 1° |
| 2026-05-07 16:53 | 31.44111 | -110.94498 | 36101 ft | 489 kts | 1° |
| 2026-05-07 16:53 | 31.50894 | -110.94188 | 36088 ft | 488 kts | 1° |
| 2026-05-07 16:54 | 31.57672 | -110.93877 | 36053 ft | 488 kts | 1° |
| 2026-05-07 16:54 | 31.64411 | -110.93568 | 35962 ft | 488 kts | 1° |
| 2026-05-07 16:55 | 31.71194 | -110.93256 | 35960 ft | 488 kts | 1° |
| 2026-05-07 16:55 | 31.77979 | -110.92944 | 35969 ft | 488 kts | 1° |
| 2026-05-07 16:56 | 31.84766 | -110.92631 | 36001 ft | 488 kts | 1° |
| 2026-05-07 16:56 | 31.94910 | -110.92162 | 36049 ft | 484 kts | 2° |
| 2026-05-07 16:57 | 32.01631 | -110.91851 | 36079 ft | 483 kts | 2° |
| 2026-05-07 16:57 | 32.08300 | -110.91596 | 36076 ft | 483 kts | 356° |
| 2026-05-07 16:58 | 32.11588 | -110.92248 | 36080 ft | 479 kts | 343° |
| 2026-05-07 16:58 | 32.14809 | -110.93263 | 36071 ft | 482 kts | 345° |
| 2026-05-07 16:58 | 32.21268 | -110.95304 | 36074 ft | 478 kts | 344° |
| 2026-05-07 16:59 | 32.27674 | -110.97382 | 36045 ft | 477 kts | 344° |
| 2026-05-07 16:59 | 32.34077 | -110.99467 | 36020 ft | 477 kts | 344° |
| 2026-05-07 17:00 | 32.40469 | -111.01552 | 36009 ft | 477 kts | 344° |
| 2026-05-07 17:00 | 32.46846 | -111.03635 | 36007 ft | 472 kts | 345° |
| 2026-05-07 17:01 | 32.53175 | -111.05705 | 36001 ft | 472 kts | 345° |
| 2026-05-07 17:01 | 32.59512 | -111.07782 | 35988 ft | 472 kts | 345° |
| 2026-05-07 17:02 | 32.65833 | -111.09855 | 35992 ft | 472 kts | 345° |
| 2026-05-07 17:02 | 32.72126 | -111.11923 | 35978 ft | 467 kts | 345° |
| 2026-05-07 17:03 | 32.78392 | -111.13985 | 35972 ft | 468 kts | 345° |
| 2026-05-07 17:03 | 32.84628 | -111.16040 | 35940 ft | 463 kts | 346° |
| 2026-05-07 17:04 | 32.90840 | -111.18089 | 35946 ft | 462 kts | 346° |
| 2026-05-07 17:04 | 32.96999 | -111.20125 | 35943 ft | 459 kts | 346° |
| 2026-05-07 17:05 | 33.00074 | -111.21143 | 36128 ft | 459 kts | 346° |
| 2026-05-07 17:05 | 33.03162 | -111.22166 | 36360 ft | 460 kts | 346° |
| 2026-05-07 17:05 | 33.06239 | -111.23185 | 36561 ft | 460 kts | 346° |
| 2026-05-07 17:05 | 33.09306 | -111.24202 | 36785 ft | 461 kts | 345° |
| 2026-05-07 17:06 | 33.12344 | -111.25210 | 36972 ft | 461 kts | 346° |
| 2026-05-07 17:06 | 33.15430 | -111.26235 | 37250 ft | 459 kts | 345° |
| 2026-05-07 17:06 | 33.18501 | -111.27256 | 37519 ft | 458 kts | 345° |
| 2026-05-07 17:06 | 33.21613 | -111.28290 | 37706 ft | 458 kts | 345° |
| 2026-05-07 17:07 | 33.24679 | -111.29310 | 37894 ft | 458 kts | 345° |
| 2026-05-07 17:07 | 33.27713 | -111.30320 | 37970 ft | 459 kts | 345° |
| 2026-05-07 17:07 | 33.33846 | -111.32365 | 37943 ft | 457 kts | 345° |
| 2026-05-07 17:08 | 33.39956 | -111.34404 | 37950 ft | 454 kts | 346° |
| 2026-05-07 17:08 | 33.46008 | -111.36427 | 37957 ft | 452 kts | 345° |
| 2026-05-07 17:09 | 33.52027 | -111.38652 | 37971 ft | 453 kts | 342° |
| 2026-05-07 17:09 | 33.57980 | -111.41092 | 37948 ft | 453 kts | 342° |
| 2026-05-07 17:10 | 33.63908 | -111.43494 | 37945 ft | 449 kts | 343° |
| 2026-05-07 17:10 | 33.69812 | -111.45885 | 37954 ft | 448 kts | 343° |
| 2026-05-07 17:11 | 33.75703 | -111.48278 | 37967 ft | 448 kts | 343° |
| 2026-05-07 17:11 | 33.81587 | -111.50667 | 37974 ft | 448 kts | 343° |
| 2026-05-07 17:12 | 33.87497 | -111.53074 | 37987 ft | 448 kts | 343° |
| 2026-05-07 17:12 | 33.93401 | -111.55481 | 37996 ft | 448 kts | 343° |
| 2026-05-07 17:13 | 33.99295 | -111.57887 | 37985 ft | 448 kts | 343° |
| 2026-05-07 17:13 | 34.05198 | -111.60300 | 37983 ft | 448 kts | 343° |
| 2026-05-07 17:14 | 34.11103 | -111.62718 | 38006 ft | 448 kts | 343° |
| 2026-05-07 17:14 | 34.16972 | -111.65127 | 38017 ft | 448 kts | 343° |
| 2026-05-07 17:15 | 34.22881 | -111.67552 | 38012 ft | 448 kts | 343° |
| 2026-05-07 17:15 | 34.28782 | -111.69978 | 38010 ft | 448 kts | 343° |
| 2026-05-07 17:16 | 34.34665 | -111.72401 | 38015 ft | 447 kts | 343° |
| 2026-05-07 17:16 | 34.40592 | -111.74845 | 38018 ft | 447 kts | 343° |
| 2026-05-07 17:17 | 34.46482 | -111.77279 | 38025 ft | 447 kts | 343° |
| 2026-05-07 17:17 | 34.52318 | -111.79694 | 38045 ft | 446 kts | 342° |
| 2026-05-07 17:18 | 34.58170 | -111.82118 | 38072 ft | 445 kts | 342° |
| 2026-05-07 17:18 | 34.64025 | -111.84547 | 38109 ft | 445 kts | 342° |
| 2026-05-07 17:19 | 34.69861 | -111.86972 | 38141 ft | 445 kts | 342° |
| 2026-05-07 17:19 | 34.75714 | -111.89409 | 38162 ft | 447 kts | 342° |
| 2026-05-07 17:20 | 34.81618 | -111.91869 | 38173 ft | 449 kts | 342° |
| 2026-05-07 17:20 | 34.87513 | -111.94330 | 38159 ft | 448 kts | 342° |
| 2026-05-07 17:21 | 34.93391 | -111.96787 | 38133 ft | 448 kts | 342° |
| 2026-05-07 17:21 | 34.99276 | -111.99251 | 38110 ft | 448 kts | 343° |
| 2026-05-07 17:22 | 35.05169 | -112.01722 | 38087 ft | 448 kts | 343° |
| 2026-05-07 17:22 | 35.11060 | -112.04197 | 38107 ft | 448 kts | 342° |
| 2026-05-07 17:23 | 35.16950 | -112.06674 | 38203 ft | 447 kts | 342° |
| 2026-05-07 17:23 | 35.22774 | -112.09128 | 38247 ft | 441 kts | 342° |
| 2026-05-07 17:24 | 35.28583 | -112.11579 | 38265 ft | 442 kts | 342° |
| 2026-05-07 17:24 | 35.34376 | -112.14027 | 38260 ft | 442 kts | 342° |
| 2026-05-07 17:25 | 35.40156 | -112.16473 | 38271 ft | 440 kts | 343° |
| 2026-05-07 17:25 | 35.45896 | -112.18906 | 38220 ft | 435 kts | 343° |
| 2026-05-07 17:26 | 35.51605 | -112.21329 | 38178 ft | 435 kts | 343° |
| 2026-05-07 17:26 | 35.57328 | -112.23762 | 38141 ft | 435 kts | 343° |
| 2026-05-07 17:27 | 35.63006 | -112.26180 | 38071 ft | 433 kts | 343° |
| 2026-05-07 17:27 | 35.68727 | -112.28619 | 38066 ft | 433 kts | 343° |
| 2026-05-07 17:28 | 35.74409 | -112.31045 | 38062 ft | 433 kts | 343° |
| 2026-05-07 17:28 | 35.80058 | -112.33461 | 38058 ft | 433 kts | 343° |
| 2026-05-07 17:29 | 35.85741 | -112.35896 | 38058 ft | 433 kts | 343° |
| 2026-05-07 17:29 | 35.88581 | -112.37114 | 38199 ft | 433 kts | 343° |
| 2026-05-07 17:29 | 35.91426 | -112.38335 | 38194 ft | 433 kts | 343° |
| 2026-05-07 17:30 | 35.97106 | -112.40775 | 38182 ft | 433 kts | 343° |
| 2026-05-07 17:30 | 36.02786 | -112.43219 | 38149 ft | 433 kts | 343° |
| 2026-05-07 17:31 | 36.08465 | -112.45667 | 38130 ft | 432 kts | 343° |
| 2026-05-07 17:31 | 36.14135 | -112.48114 | 38093 ft | 432 kts | 343° |
| 2026-05-07 17:32 | 36.19808 | -112.50566 | 38076 ft | 432 kts | 343° |
| 2026-05-07 17:32 | 36.24522 | -112.52606 | 38080 ft | 432 kts | 343° |
| 2026-05-07 17:33 | 36.31154 | -112.55480 | 38071 ft | 432 kts | 343° |
| 2026-05-07 17:33 | 36.36801 | -112.57932 | 38106 ft | 433 kts | 343° |
| 2026-05-07 17:34 | 36.42470 | -112.60396 | 38068 ft | 432 kts | 343° |
| 2026-05-07 17:34 | 36.48054 | -112.63153 | 38088 ft | 432 kts | 338° |
| 2026-05-07 17:35 | 36.53496 | -112.66311 | 38067 ft | 432 kts | 338° |
| 2026-05-07 17:35 | 36.58943 | -112.69505 | 38067 ft | 433 kts | 338° |
| 2026-05-07 17:36 | 36.64368 | -112.72693 | 38074 ft | 433 kts | 338° |
| 2026-05-07 17:36 | 36.69803 | -112.75892 | 38087 ft | 431 kts | 337° |
| 2026-05-07 17:37 | 36.75221 | -112.79086 | 38117 ft | 431 kts | 338° |
| 2026-05-07 17:37 | 36.80647 | -112.82290 | 38159 ft | 432 kts | 338° |
| 2026-05-07 17:38 | 36.85159 | -112.84958 | 38190 ft | 431 kts | 338° |
| 2026-05-07 17:38 | 36.90607 | -112.88184 | 38222 ft | 431 kts | 338° |
| 2026-05-07 17:39 | 36.95991 | -112.91378 | 38234 ft | 431 kts | 337° |
| 2026-05-07 17:39 | 37.01395 | -112.94588 | 38243 ft | 431 kts | 337° |
| 2026-05-07 17:40 | 37.06815 | -112.97808 | 38198 ft | 432 kts | 337° |
| 2026-05-07 17:40 | 37.12234 | -113.01039 | 38172 ft | 433 kts | 337° |
| 2026-05-07 17:41 | 37.17661 | -113.04282 | 38162 ft | 432 kts | 337° |
| 2026-05-07 17:41 | 37.23079 | -113.07521 | 38123 ft | 431 kts | 337° |
| 2026-05-07 17:42 | 37.28490 | -113.10764 | 38062 ft | 431 kts | 337° |
| 2026-05-07 17:42 | 37.33883 | -113.13998 | 38095 ft | 431 kts | 337° |
| 2026-05-07 17:43 | 37.39297 | -113.17251 | 38081 ft | 430 kts | 337° |
| 2026-05-07 17:43 | 37.44706 | -113.20502 | 38132 ft | 431 kts | 337° |
| 2026-05-07 17:44 | 37.50083 | -113.23743 | 38137 ft | 428 kts | 336° |
| 2026-05-07 17:44 | 37.55432 | -113.26972 | 38164 ft | 428 kts | 336° |
| 2026-05-07 17:45 | 37.60798 | -113.30217 | 38173 ft | 428 kts | 336° |
| 2026-05-07 17:45 | 37.66163 | -113.33465 | 38167 ft | 428 kts | 336° |
| 2026-05-07 17:46 | 37.71518 | -113.36713 | 38150 ft | 426 kts | 336° |
| 2026-05-07 17:46 | 37.76856 | -113.39956 | 38131 ft | 426 kts | 336° |
| 2026-05-07 17:47 | 37.82196 | -113.43205 | 38091 ft | 426 kts | 336° |
| 2026-05-07 17:47 | 37.87540 | -113.46461 | 38070 ft | 425 kts | 336° |
| 2026-05-07 17:48 | 37.92819 | -113.49700 | 38058 ft | 425 kts | 333° |
| 2026-05-07 17:48 | 37.97860 | -113.53731 | 38041 ft | 427 kts | 330° |
| 2026-05-07 17:49 | 38.02876 | -113.57662 | 38060 ft | 427 kts | 330° |
| 2026-05-07 17:49 | 38.07963 | -113.61630 | 38052 ft | 426 kts | 330° |
| 2026-05-07 17:50 | 38.12979 | -113.65547 | 38046 ft | 426 kts | 330° |
| 2026-05-07 17:50 | 38.18034 | -113.69500 | 38049 ft | 426 kts | 330° |
| 2026-05-07 17:51 | 38.23076 | -113.73448 | 38044 ft | 426 kts | 330° |
| 2026-05-07 17:51 | 38.28124 | -113.77409 | 38041 ft | 427 kts | 330° |
| 2026-05-07 17:52 | 38.33183 | -113.81385 | 38042 ft | 427 kts | 330° |
| 2026-05-07 17:52 | 38.38241 | -113.85366 | 38041 ft | 427 kts | 330° |
| 2026-05-07 17:53 | 38.43289 | -113.89347 | 38041 ft | 427 kts | 330° |
| 2026-05-07 17:53 | 38.48337 | -113.93333 | 38039 ft | 427 kts | 330° |
| 2026-05-07 17:54 | 38.53380 | -113.97320 | 38036 ft | 426 kts | 330° |
| 2026-05-07 17:54 | 38.58425 | -114.01322 | 38054 ft | 427 kts | 330° |
| 2026-05-07 17:55 | 38.63458 | -114.05316 | 38035 ft | 426 kts | 330° |
| 2026-05-07 17:55 | 38.68499 | -114.09324 | 38035 ft | 427 kts | 330° |
| 2026-05-07 17:56 | 38.73542 | -114.13341 | 38038 ft | 427 kts | 330° |
| 2026-05-07 17:56 | 38.78593 | -114.17367 | 38037 ft | 427 kts | 330° |
| 2026-05-07 17:57 | 38.82778 | -114.20717 | 38028 ft | 426 kts | 330° |
| 2026-05-07 17:57 | 38.88654 | -114.25410 | 38014 ft | 427 kts | 330° |
| 2026-05-07 17:58 | 38.93688 | -114.29451 | 38026 ft | 427 kts | 330° |
| 2026-05-07 17:58 | 38.98710 | -114.33491 | 38058 ft | 425 kts | 329° |
| 2026-05-07 17:59 | 39.03693 | -114.37499 | 38036 ft | 422 kts | 329° |
| 2026-05-07 17:59 | 39.08682 | -114.41519 | 38060 ft | 425 kts | 329° |
| 2026-05-07 18:00 | 39.13699 | -114.45568 | 38066 ft | 424 kts | 329° |
| 2026-05-07 18:00 | 39.18672 | -114.49588 | 38087 ft | 421 kts | 329° |
| 2026-05-07 18:01 | 39.23632 | -114.53605 | 38117 ft | 422 kts | 329° |
| 2026-05-07 18:01 | 39.28590 | -114.57628 | 38147 ft | 422 kts | 329° |
| 2026-05-07 18:02 | 39.35999 | -114.63721 | 38183 ft | 418 kts | 330° |
| 2026-05-07 18:02 | 39.38485 | -114.65703 | 38076 ft | 421 kts | 329° |
| 2026-05-07 18:03 | 39.40964 | -114.67706 | 38018 ft | 420 kts | 329° |
| 2026-05-07 18:03 | 39.45879 | -114.71710 | 38037 ft | 421 kts | 329° |
| 2026-05-07 18:04 | 39.50842 | -114.75768 | 38039 ft | 418 kts | 329° |
| 2026-05-07 18:04 | 39.55749 | -114.79787 | 38046 ft | 418 kts | 329° |
| 2026-05-07 18:05 | 39.60624 | -114.83787 | 38038 ft | 417 kts | 329° |
| 2026-05-07 18:05 | 39.65539 | -114.87812 | 38027 ft | 416 kts | 329° |
| 2026-05-07 18:06 | 39.70405 | -114.91829 | 38053 ft | 415 kts | 328° |
| 2026-05-07 18:06 | 39.75277 | -114.95849 | 38046 ft | 415 kts | 328° |
| 2026-05-07 18:07 | 39.80146 | -114.99871 | 38038 ft | 415 kts | 328° |
| 2026-05-07 18:07 | 39.82632 | -115.01781 | 37911 ft | 413 kts | 339° |
| 2026-05-07 18:07 | 39.85408 | -115.02219 | 38104 ft | 404 kts | 4° |
| 2026-05-07 18:07 | 39.88226 | -115.01853 | 37968 ft | 409 kts | 356° |
| 2026-05-07 18:08 | 39.91006 | -115.02436 | 38094 ft | 406 kts | 340° |
| 2026-05-07 18:08 | 39.93524 | -115.04104 | 38045 ft | 411 kts | 323° |
| 2026-05-07 18:08 | 39.95550 | -115.06747 | 38013 ft | 415 kts | 307° |
| 2026-05-07 18:09 | 39.98603 | -115.13195 | 38049 ft | 418 kts | 309° |
| 2026-05-07 18:09 | 40.00587 | -115.15934 | 38013 ft | 414 kts | 323° |
| 2026-05-07 18:09 | 40.02874 | -115.18217 | 38068 ft | 415 kts | 324° |
| 2026-05-07 18:10 | 40.07596 | -115.22547 | 38041 ft | 414 kts | 327° |
| 2026-05-07 18:10 | 40.12410 | -115.26671 | 38042 ft | 415 kts | 328° |
| 2026-05-07 18:11 | 40.17229 | -115.30725 | 38052 ft | 414 kts | 328° |
| 2026-05-07 18:11 | 40.22072 | -115.34786 | 38031 ft | 415 kts | 328° |
| 2026-05-07 18:12 | 40.26971 | -115.38901 | 38042 ft | 416 kts | 328° |
| 2026-05-07 18:12 | 40.31796 | -115.42959 | 38047 ft | 416 kts | 328° |
| 2026-05-07 18:13 | 40.36652 | -115.47051 | 38044 ft | 414 kts | 328° |
| 2026-05-07 18:13 | 40.41523 | -115.51047 | 38011 ft | 411 kts | 332° |
| 2026-05-07 18:14 | 40.46342 | -115.55145 | 38109 ft | 412 kts | 327° |
| 2026-05-07 18:14 | 40.51156 | -115.59303 | 38031 ft | 413 kts | 327° |
| 2026-05-07 18:15 | 40.55967 | -115.63397 | 38045 ft | 413 kts | 327° |
| 2026-05-07 18:15 | 40.60810 | -115.67514 | 38049 ft | 416 kts | 328° |
| 2026-05-07 18:16 | 40.65674 | -115.71656 | 38038 ft | 416 kts | 327° |
| 2026-05-07 18:16 | 40.70524 | -115.75793 | 38041 ft | 414 kts | 327° |
| 2026-05-07 18:17 | 40.75355 | -115.79920 | 38043 ft | 414 kts | 327° |
| 2026-05-07 18:17 | 40.80185 | -115.84055 | 38150 ft | 414 kts | 327° |
| 2026-05-07 18:18 | 40.85016 | -115.88197 | 38157 ft | 413 kts | 327° |
| 2026-05-07 18:18 | 40.89829 | -115.92332 | 38146 ft | 413 kts | 327° |
| 2026-05-07 18:19 | 40.94633 | -115.96464 | 38101 ft | 413 kts | 327° |
| 2026-05-07 18:19 | 40.99456 | -116.00621 | 38103 ft | 414 kts | 327° |
| 2026-05-07 18:20 | 41.04276 | -116.04782 | 38074 ft | 413 kts | 327° |
| 2026-05-07 18:20 | 41.09080 | -116.08935 | 38045 ft | 412 kts | 327° |
| 2026-05-07 18:21 | 41.13875 | -116.13089 | 38035 ft | 412 kts | 327° |
| 2026-05-07 18:21 | 41.18667 | -116.17247 | 38043 ft | 411 kts | 327° |
| 2026-05-07 18:22 | 41.23475 | -116.21383 | 38041 ft | 411 kts | 331° |
| 2026-05-07 18:22 | 41.28706 | -116.24433 | 38027 ft | 412 kts | 336° |
| 2026-05-07 18:23 | 41.33984 | -116.27428 | 38042 ft | 414 kts | 336° |
| 2026-05-07 18:23 | 41.38394 | -116.29926 | 38033 ft | 415 kts | 336° |
| 2026-05-07 18:24 | 41.43701 | -116.32934 | 38027 ft | 414 kts | 336° |
| 2026-05-07 18:24 | 41.49006 | -116.35946 | 38040 ft | 414 kts | 336° |
| 2026-05-07 18:25 | 41.54298 | -116.38955 | 38037 ft | 414 kts | 336° |
| 2026-05-07 18:25 | 41.59594 | -116.41972 | 38030 ft | 414 kts | 336° |
| 2026-05-07 18:26 | 41.64881 | -116.44989 | 38029 ft | 414 kts | 336° |
| 2026-05-07 18:26 | 41.70176 | -116.48016 | 38029 ft | 414 kts | 336° |
| 2026-05-07 18:27 | 41.75467 | -116.51047 | 38019 ft | 414 kts | 335° |
| 2026-05-07 18:27 | 41.80721 | -116.54061 | 38018 ft | 414 kts | 335° |
| 2026-05-07 18:28 | 41.85991 | -116.57091 | 38017 ft | 412 kts | 335° |
| 2026-05-07 18:28 | 41.91258 | -116.60124 | 38015 ft | 412 kts | 335° |
| 2026-05-07 18:29 | 41.96525 | -116.63162 | 38027 ft | 412 kts | 335° |
| 2026-05-07 18:29 | 42.01790 | -116.66204 | 38021 ft | 411 kts | 335° |
| 2026-05-07 18:30 | 42.07047 | -116.69248 | 38017 ft | 412 kts | 335° |
| 2026-05-07 18:30 | 42.12313 | -116.72303 | 38028 ft | 412 kts | 335° |
| 2026-05-07 18:31 | 42.17574 | -116.75360 | 38035 ft | 410 kts | 335° |
| 2026-05-07 18:31 | 42.22799 | -116.78401 | 38029 ft | 409 kts | 335° |
| 2026-05-07 18:32 | 42.28028 | -116.81451 | 38026 ft | 410 kts | 335° |
| 2026-05-07 18:32 | 42.33253 | -116.84504 | 38040 ft | 409 kts | 335° |
| 2026-05-07 18:33 | 42.38466 | -116.87555 | 38034 ft | 408 kts | 335° |
| 2026-05-07 18:33 | 42.43690 | -116.90617 | 38044 ft | 409 kts | 335° |
| 2026-05-07 18:34 | 42.48903 | -116.93680 | 38040 ft | 409 kts | 335° |
| 2026-05-07 18:34 | 42.54111 | -116.96745 | 38047 ft | 409 kts | 335° |
| 2026-05-07 18:35 | 42.59324 | -116.99818 | 38040 ft | 408 kts | 335° |
| 2026-05-07 18:35 | 42.64536 | -117.02897 | 38037 ft | 408 kts | 335° |
| 2026-05-07 18:36 | 42.69740 | -117.05976 | 38058 ft | 406 kts | 334° |
| 2026-05-07 18:36 | 42.74896 | -117.09033 | 38046 ft | 404 kts | 334° |
| 2026-05-07 18:37 | 42.80051 | -117.12094 | 38038 ft | 405 kts | 334° |
| 2026-05-07 18:37 | 42.85216 | -117.15168 | 38044 ft | 404 kts | 334° |
| 2026-05-07 18:38 | 42.90369 | -117.18239 | 38033 ft | 404 kts | 334° |
| 2026-05-07 18:38 | 42.95519 | -117.21315 | 38035 ft | 404 kts | 334° |
| 2026-05-07 18:39 | 43.00627 | -117.24371 | 38038 ft | 404 kts | 334° |
| 2026-05-07 18:39 | 43.05776 | -117.27456 | 38043 ft | 404 kts | 334° |
| 2026-05-07 18:40 | 43.10924 | -117.30548 | 38029 ft | 404 kts | 334° |
| 2026-05-07 18:40 | 43.16066 | -117.33641 | 38032 ft | 404 kts | 334° |
| 2026-05-07 18:41 | 43.21200 | -117.36736 | 38034 ft | 402 kts | 334° |
| 2026-05-07 18:41 | 43.26313 | -117.39822 | 38035 ft | 402 kts | 333° |
| 2026-05-07 18:42 | 43.31427 | -117.42916 | 38031 ft | 402 kts | 334° |
| 2026-05-07 18:42 | 43.36538 | -117.46015 | 38044 ft | 402 kts | 333° |
| 2026-05-07 18:43 | 43.41650 | -117.49113 | 37989 ft | 401 kts | 334° |
| 2026-05-07 18:43 | 43.46759 | -117.52220 | 38083 ft | 404 kts | 333° |
| 2026-05-07 18:44 | 43.51879 | -117.55345 | 38034 ft | 401 kts | 333° |
| 2026-05-07 18:44 | 43.56986 | -117.58463 | 38028 ft | 402 kts | 333° |
| 2026-05-07 18:45 | 43.62102 | -117.61592 | 38045 ft | 401 kts | 333° |
| 2026-05-07 18:45 | 43.67174 | -117.64700 | 38045 ft | 399 kts | 333° |
| 2026-05-07 18:46 | 43.72252 | -117.67819 | 38023 ft | 399 kts | 333° |
| 2026-05-07 18:46 | 43.77331 | -117.70942 | 38026 ft | 400 kts | 333° |
| 2026-05-07 18:47 | 43.82413 | -117.74074 | 38047 ft | 400 kts | 333° |
| 2026-05-07 18:47 | 43.87451 | -117.77184 | 38054 ft | 399 kts | 333° |
| 2026-05-07 18:48 | 43.92546 | -117.80336 | 38029 ft | 398 kts | 333° |
| 2026-05-07 18:48 | 43.97602 | -117.83469 | 38031 ft | 397 kts | 332° |
| 2026-05-07 18:49 | 44.02656 | -117.86607 | 38041 ft | 399 kts | 332° |
| 2026-05-07 18:49 | 44.07687 | -117.89737 | 38056 ft | 398 kts | 332° |
| 2026-05-07 18:50 | 44.12720 | -117.92873 | 38043 ft | 397 kts | 332° |
| 2026-05-07 18:50 | 44.17759 | -117.96020 | 38027 ft | 397 kts | 332° |
| 2026-05-07 18:51 | 44.22805 | -117.99176 | 38039 ft | 398 kts | 332° |
| 2026-05-07 18:51 | 44.27845 | -118.02334 | 38036 ft | 397 kts | 332° |
| 2026-05-07 18:52 | 44.32876 | -118.05493 | 38048 ft | 397 kts | 332° |
| 2026-05-07 18:52 | 44.37907 | -118.08662 | 38045 ft | 399 kts | 332° |
| 2026-05-07 18:53 | 44.42945 | -118.11835 | 38041 ft | 396 kts | 332° |
| 2026-05-07 18:53 | 44.47975 | -118.15010 | 38081 ft | 398 kts | 332° |
| 2026-05-07 18:54 | 44.53000 | -118.18186 | 38031 ft | 394 kts | 332° |
| 2026-05-07 18:54 | 44.58012 | -118.21365 | 38073 ft | 396 kts | 332° |
| 2026-05-07 18:55 | 44.62985 | -118.24526 | 38063 ft | 392 kts | 332° |
| 2026-05-07 18:55 | 44.67965 | -118.27694 | 38058 ft | 393 kts | 332° |
| 2026-05-07 18:56 | 44.72906 | -118.30844 | 38058 ft | 393 kts | 332° |
| 2026-05-07 18:56 | 44.77877 | -118.34019 | 38065 ft | 393 kts | 332° |
| 2026-05-07 18:57 | 44.82850 | -118.37202 | 38076 ft | 394 kts | 332° |
| 2026-05-07 18:57 | 44.87839 | -118.40400 | 38066 ft | 393 kts | 332° |
| 2026-05-07 18:58 | 44.92821 | -118.43599 | 38082 ft | 393 kts | 332° |
| 2026-05-07 18:58 | 44.97811 | -118.46811 | 38083 ft | 393 kts | 331° |
| 2026-05-07 18:59 | 45.02776 | -118.50012 | 38066 ft | 393 kts | 331° |
| 2026-05-07 18:59 | 45.07747 | -118.53220 | 38044 ft | 393 kts | 331° |
| 2026-05-07 19:00 | 45.12714 | -118.56440 | 38092 ft | 393 kts | 331° |
| 2026-05-07 19:00 | 45.17674 | -118.59657 | 38081 ft | 392 kts | 331° |
| 2026-05-07 19:01 | 45.22633 | -118.62879 | 38074 ft | 392 kts | 331° |
| 2026-05-07 19:01 | 45.27590 | -118.66106 | 38071 ft | 392 kts | 331° |
| 2026-05-07 19:02 | 45.32549 | -118.69340 | 38072 ft | 392 kts | 331° |
| 2026-05-07 19:02 | 45.37505 | -118.72579 | 38114 ft | 392 kts | 331° |
| 2026-05-07 19:03 | 45.42470 | -118.75828 | 38042 ft | 391 kts | 331° |
| 2026-05-07 19:03 | 45.47424 | -118.79075 | 38077 ft | 393 kts | 331° |
| 2026-05-07 19:04 | 45.52370 | -118.82325 | 38075 ft | 392 kts | 331° |
| 2026-05-07 19:04 | 45.57316 | -118.85581 | 38099 ft | 388 kts | 331° |
| 2026-05-07 19:05 | 45.62206 | -118.88807 | 38081 ft | 387 kts | 331° |
| 2026-05-07 19:05 | 45.67097 | -118.92039 | 38069 ft | 387 kts | 330° |
| 2026-05-07 19:05 | 45.69405 | -118.93957 | 38063 ft | 381 kts | 317° |
| 2026-05-07 19:06 | 45.71232 | -118.96644 | 38080 ft | 378 kts | 311° |
| 2026-05-07 19:06 | 45.76472 | -119.05095 | 38051 ft | 380 kts | 310° |
| 2026-05-07 19:07 | 45.79906 | -119.10850 | 38073 ft | 380 kts | 309° |
| 2026-05-07 19:07 | 45.83320 | -119.16624 | 38019 ft | 381 kts | 309° |
| 2026-05-07 19:08 | 45.86763 | -119.22466 | 38074 ft | 385 kts | 309° |
| 2026-05-07 19:08 | 45.90209 | -119.28325 | 38059 ft | 384 kts | 309° |
| 2026-05-07 19:09 | 45.93645 | -119.34181 | 38064 ft | 384 kts | 309° |
| 2026-05-07 19:09 | 45.97083 | -119.40051 | 38064 ft | 384 kts | 309° |
| 2026-05-07 19:10 | 46.00521 | -119.45933 | 38054 ft | 384 kts | 309° |
| 2026-05-07 19:10 | 46.03948 | -119.51811 | 38055 ft | 384 kts | 309° |
| 2026-05-07 19:11 | 46.07376 | -119.57702 | 38052 ft | 384 kts | 309° |
| 2026-05-07 19:11 | 46.10804 | -119.63604 | 38037 ft | 384 kts | 309° |
| 2026-05-07 19:12 | 46.13647 | -119.68511 | 38045 ft | 384 kts | 309° |
| 2026-05-07 19:12 | 46.17067 | -119.74421 | 38037 ft | 384 kts | 309° |
| 2026-05-07 19:13 | 46.20480 | -119.80335 | 38036 ft | 384 kts | 309° |
| 2026-05-07 19:13 | 46.23891 | -119.86260 | 38024 ft | 384 kts | 309° |
| 2026-05-07 19:14 | 46.27300 | -119.92191 | 38032 ft | 384 kts | 309° |
| 2026-05-07 19:14 | 46.30704 | -119.98127 | 38035 ft | 384 kts | 309° |
| 2026-05-07 19:15 | 46.34107 | -120.04074 | 38018 ft | 384 kts | 309° |
| 2026-05-07 19:15 | 46.37508 | -120.10031 | 38025 ft | 384 kts | 308° |
| 2026-05-07 19:16 | 46.40912 | -120.16006 | 37915 ft | 385 kts | 308° |
| 2026-05-07 19:16 | 46.42611 | -120.18992 | 37686 ft | 384 kts | 308° |
| 2026-05-07 19:16 | 46.44311 | -120.21985 | 37461 ft | 385 kts | 308° |
| 2026-05-07 19:17 | 46.46012 | -120.24983 | 37232 ft | 386 kts | 308° |
| 2026-05-07 19:17 | 46.47699 | -120.27958 | 37007 ft | 387 kts | 308° |
| 2026-05-07 19:17 | 46.49412 | -120.30981 | 36797 ft | 388 kts | 308° |
| 2026-05-07 19:17 | 46.51127 | -120.34013 | 36575 ft | 390 kts | 308° |
| 2026-05-07 19:18 | 46.52844 | -120.37052 | 36358 ft | 391 kts | 308° |
| 2026-05-07 19:18 | 46.54573 | -120.40114 | 36143 ft | 392 kts | 308° |
| 2026-05-07 19:18 | 46.56305 | -120.43186 | 35925 ft | 394 kts | 308° |
| 2026-05-07 19:18 | 46.57894 | -120.46427 | 35701 ft | 395 kts | 304° |
| 2026-05-07 19:19 | 46.59453 | -120.49727 | 35464 ft | 396 kts | 304° |
| 2026-05-07 19:19 | 46.61031 | -120.53034 | 35245 ft | 400 kts | 304° |
| 2026-05-07 19:19 | 46.62628 | -120.56367 | 35037 ft | 402 kts | 304° |
| 2026-05-07 19:19 | 46.64229 | -120.59706 | 34835 ft | 403 kts | 304° |
| 2026-05-07 19:20 | 46.65834 | -120.63057 | 34607 ft | 404 kts | 304° |
| 2026-05-07 19:20 | 46.67439 | -120.66407 | 34409 ft | 406 kts | 304° |
| 2026-05-07 19:20 | 46.69055 | -120.69787 | 34197 ft | 406 kts | 304° |
| 2026-05-07 19:20 | 46.70660 | -120.73145 | 33474 ft | 404 kts | 304° |
| 2026-05-07 19:21 | 46.72281 | -120.76543 | 32307 ft | 414 kts | 304° |
| 2026-05-07 19:21 | 46.73940 | -120.80023 | 31273 ft | 420 kts | 304° |
| 2026-05-07 19:21 | 46.75606 | -120.83524 | 30468 ft | 421 kts | 304° |
| 2026-05-07 19:21 | 46.77274 | -120.87028 | 29651 ft | 420 kts | 304° |
| 2026-05-07 19:22 | 46.78940 | -120.90540 | 28678 ft | 423 kts | 304° |
| 2026-05-07 19:22 | 46.80605 | -120.94052 | 27984 ft | 419 kts | 304° |
| 2026-05-07 19:22 | 46.82267 | -120.97584 | 27120 ft | 426 kts | 304° |
| 2026-05-07 19:22 | 46.83950 | -121.01163 | 26487 ft | 428 kts | 304° |
| 2026-05-07 19:23 | 46.85644 | -121.04772 | 25865 ft | 431 kts | 304° |
| 2026-05-07 19:23 | 46.87337 | -121.08381 | 25193 ft | 430 kts | 304° |
| 2026-05-07 19:23 | 46.89021 | -121.11976 | 24524 ft | 427 kts | 304° |
| 2026-05-07 19:23 | 46.90694 | -121.15551 | 23844 ft | 426 kts | 304° |
| 2026-05-07 19:24 | 46.92362 | -121.19123 | 23111 ft | 425 kts | 304° |
| 2026-05-07 19:24 | 46.94026 | -121.22687 | 22375 ft | 423 kts | 304° |
| 2026-05-07 19:24 | 46.95673 | -121.26222 | 21731 ft | 420 kts | 304° |
| 2026-05-07 19:24 | 46.97313 | -121.29747 | 21069 ft | 417 kts | 304° |
| 2026-05-07 19:25 | 46.98943 | -121.33253 | 20452 ft | 415 kts | 304° |
| 2026-05-07 19:25 | 47.00558 | -121.36731 | 20028 ft | 408 kts | 304° |
| 2026-05-07 19:25 | 47.02132 | -121.40125 | 19798 ft | 397 kts | 304° |
| 2026-05-07 19:25 | 47.03661 | -121.43427 | 19479 ft | 390 kts | 304° |
| 2026-05-07 19:26 | 47.05167 | -121.46682 | 19218 ft | 381 kts | 304° |
| 2026-05-07 19:26 | 47.06639 | -121.49865 | 19019 ft | 371 kts | 304° |
| 2026-05-07 19:26 | 47.08074 | -121.52978 | 18597 ft | 369 kts | 304° |
| 2026-05-07 19:26 | 47.09500 | -121.56072 | 18229 ft | 365 kts | 304° |
| 2026-05-07 19:27 | 47.10918 | -121.59151 | 17821 ft | 362 kts | 304° |
| 2026-05-07 19:27 | 47.12322 | -121.62204 | 17395 ft | 359 kts | 304° |
| 2026-05-07 19:27 | 47.13708 | -121.65221 | 16997 ft | 355 kts | 304° |
| 2026-05-07 19:27 | 47.15085 | -121.68223 | 16594 ft | 352 kts | 304° |
| 2026-05-07 19:28 | 47.16447 | -121.71192 | 16225 ft | 349 kts | 304° |
| 2026-05-07 19:28 | 47.17795 | -121.74138 | 15830 ft | 347 kts | 304° |
| 2026-05-07 19:28 | 47.19136 | -121.77068 | 15443 ft | 344 kts | 304° |
| 2026-05-07 19:28 | 47.20463 | -121.79971 | 15065 ft | 341 kts | 303° |
| 2026-05-07 19:29 | 47.21777 | -121.82851 | 14785 ft | 336 kts | 303° |
| 2026-05-07 19:29 | 47.23066 | -121.85679 | 14502 ft | 331 kts | 303° |
| 2026-05-07 19:29 | 47.24336 | -121.88466 | 14248 ft | 326 kts | 303° |
| 2026-05-07 19:29 | 47.25594 | -121.91229 | 13988 ft | 324 kts | 303° |
| 2026-05-07 19:30 | 47.26849 | -121.93990 | 13705 ft | 324 kts | 303° |
| 2026-05-07 19:30 | 47.28081 | -121.96702 | 13424 ft | 323 kts | 303° |
| 2026-05-07 19:30 | 47.29325 | -121.99445 | 13160 ft | 322 kts | 303° |
| 2026-05-07 19:30 | 47.30568 | -122.02187 | 12911 ft | 320 kts | 303° |
| 2026-05-07 19:31 | 47.31792 | -122.04889 | 12665 ft | 314 kts | 303° |
| 2026-05-07 19:31 | 47.32998 | -122.07554 | 12425 ft | 310 kts | 303° |
| 2026-05-07 19:31 | 47.34190 | -122.10192 | 12168 ft | 308 kts | 304° |
| 2026-05-07 19:31 | 47.35457 | -122.12696 | 11890 ft | 303 kts | 317° |
| 2026-05-07 19:32 | 47.37226 | -122.14263 | 11736 ft | 294 kts | 342° |
| 2026-05-07 19:32 | 47.39225 | -122.14723 | 11377 ft | 293 kts | 357° |
| 2026-05-07 19:32 | 47.41261 | -122.14838 | 11036 ft | 292 kts | 358° |
| 2026-05-07 19:32 | 47.43284 | -122.14942 | 10710 ft | 291 kts | 358° |
| 2026-05-07 19:33 | 47.45302 | -122.15046 | 10403 ft | 289 kts | 358° |
| 2026-05-07 19:33 | 47.47307 | -122.15149 | 10080 ft | 288 kts | 358° |
| 2026-05-07 19:33 | 47.49304 | -122.15251 | 9740 ft | 286 kts | 358° |
| 2026-05-07 19:33 | 47.51290 | -122.15354 | 9395 ft | 284 kts | 358° |
| 2026-05-07 19:34 | 47.53263 | -122.15454 | 9030 ft | 284 kts | 358° |
| 2026-05-07 19:34 | 47.55226 | -122.15555 | 8702 ft | 280 kts | 358° |
| 2026-05-07 19:34 | 47.57178 | -122.15653 | 8148 ft | 282 kts | 358° |
| 2026-05-07 19:34 | 47.59154 | -122.15753 | 7609 ft | 285 kts | 358° |
| 2026-05-07 19:35 | 47.61109 | -122.16073 | 7238 ft | 280 kts | 355° |
| 2026-05-07 19:35 | 47.63036 | -122.16244 | 6815 ft | 279 kts | 358° |
| 2026-05-07 19:35 | 47.64972 | -122.16367 | 6358 ft | 278 kts | 358° |
| 2026-05-07 19:35 | 47.66877 | -122.16625 | 5980 ft | 273 kts | 344° |
| 2026-05-07 19:36 | 47.68481 | -122.18043 | 5659 ft | 269 kts | 317° |
| 2026-05-07 19:36 | 47.69788 | -122.20005 | 5343 ft | 268 kts | 309° |
| 2026-05-07 19:36 | 47.70531 | -122.22487 | 5110 ft | 264 kts | 280° |
| 2026-05-07 19:36 | 47.70715 | -122.25197 | 4822 ft | 265 kts | 275° |
| 2026-05-07 19:37 | 47.70652 | -122.27884 | 4710 ft | 258 kts | 253° |
| 2026-05-07 19:37 | 47.69698 | -122.30023 | 4723 ft | 243 kts | 221° |
| 2026-05-07 19:37 | 47.68264 | -122.31180 | 4668 ft | 231 kts | 197° |
| 2026-05-07 19:37 | 47.66746 | -122.31569 | 4636 ft | 215 kts | 184° |
| 2026-05-07 19:38 | 47.65263 | -122.31645 | 4360 ft | 212 kts | 180° |
| 2026-05-07 19:38 | 47.63810 | -122.31655 | 4010 ft | 208 kts | 180° |
| 2026-05-07 19:38 | 47.62388 | -122.31663 | 3696 ft | 202 kts | 180° |
| 2026-05-07 19:38 | 47.61006 | -122.31672 | 3412 ft | 196 kts | 180° |
| 2026-05-07 19:39 | 47.59668 | -122.31682 | 3135 ft | 190 kts | 180° |
| 2026-05-07 19:39 | 47.58364 | -122.31692 | 2864 ft | 184 kts | 180° |
| 2026-05-07 19:39 | 47.57118 | -122.31701 | 2615 ft | 179 kts | 180° |
| 2026-05-07 19:39 | 47.55889 | -122.31712 | 2379 ft | 175 kts | 180° |
| 2026-05-07 19:40 | 47.54701 | -122.31722 | 2146 ft | 166 kts | 180° |
| 2026-05-07 19:40 | 47.53564 | -122.31730 | 1925 ft | 161 kts | 181° |
| 2026-05-07 19:40 | 47.52447 | -122.31739 | 1698 ft | 160 kts | 181° |
| 2026-05-07 19:40 | 47.51382 | -122.31748 | 1509 ft | 148 kts | 181° |
| 2026-05-07 19:41 | 47.50368 | -122.31756 | 1286 ft | 144 kts | 181° |
| 2026-05-07 19:41 | 47.49364 | -122.31764 | 1083 ft | 145 kts | 181° |
| 2026-05-07 19:41 | 47.48355 | -122.31773 | 857 ft | 145 kts | 181° |
| 2026-05-07 19:41 | 47.47348 | -122.31784 | 661 ft | 145 kts | 180° |
| 2026-05-07 19:42 | 47.46337 | -122.31792 | 460 ft | 145 kts | 180° |
| 2026-05-07 19:42 | 47.45432 | -122.31798 | 402 ft | 108 kts | 180° |
| 2026-05-07 19:42 | 47.44825 | -122.31803 | 392 ft | 70 kts | 180° |
| 2026-05-07 19:42 | 47.44454 | -122.31796 | 379 ft | 32 kts | 175° |
| 2026-05-07 19:43 | 47.44286 | -122.31729 | 371 ft | 23 kts | 157° |
| 2026-05-07 19:43 | 47.44165 | -122.31634 | 372 ft | 21 kts | 152° |
| 2026-05-07 19:43 | 47.44031 | -122.31523 | 369 ft | 23 kts | 150° |
| 2026-05-07 19:43 | 47.43887 | -122.31401 | 371 ft | 24 kts | 150° |
| 2026-05-07 19:44 | 47.43815 | -122.31301 | 373 ft | 13 kts | 108° |
| 2026-05-07 19:44 | 47.43809 | -122.31166 | 374 ft | 14 kts | 89° |
| 2026-05-07 19:44 | 47.43808 | -122.31008 | 375 ft | 16 kts | 91° |
| 2026-05-07 19:44 | 47.43806 | -122.30841 | 378 ft | 16 kts | 90° |
| 2026-05-07 19:45 | 47.43804 | -122.30670 | 379 ft | 14 kts | 105° |
| 2026-05-07 19:45 | 47.43730 | -122.30601 | 379 ft | 13 kts | 119° |
| 2026-05-07 19:45 | 47.43722 | -122.30469 | 382 ft | 13 kts | 91° |
| 2026-05-07 19:45 | 47.43723 | -122.30326 | 383 ft | 15 kts | 81° |
| 2026-05-07 19:46 | 47.43747 | -122.30172 | 385 ft | 16 kts | 77° |
| 2026-05-07 19:46 | 47.43768 | -122.30027 | 386 ft | 10 kts | 78° |
| 2026-05-07 19:46 | 47.43817 | -122.29976 | 389 ft | 9 kts | 10° |
| 2026-05-07 19:46 | 47.43879 | -122.29960 | 390 ft | 8 kts | 7° |
| 2026-05-07 19:47 | 47.43891 | -122.29958 | 390 ft | 1 kts | 7° |
| 2026-05-07 19:47 | 47.43899 | -122.29957 | 391 ft | 2 kts | 4° |
| 2026-05-07 19:47 | 47.43917 | -122.29960 | 391 ft | 3 kts | 342° |
| 2026-05-07 19:47 | 47.43937 | -122.29976 | 391 ft | 2 kts | 313° |
| 2026-05-07 19:48 | 47.43940 | -122.29985 | 391 ft | 0 kts | 283° |
| 2026-05-07 19:48 | 47.43938 | -122.29989 | 391 ft | 1 kts | 243° |
| 2026-05-07 19:48 | 47.43926 | -122.30021 | 391 ft | 6 kts | 243° |
| 2026-05-07 19:48 | 47.43918 | -122.30044 | 391 ft | 0 kts | 245° |
| 2026-05-07 19:49 | 47.43918 | -122.30046 | 391 ft | 0 kts | 245° |